Plymouth, MI (48170)

10:57 AM EST on November 27, 2014 (GMT -0500)
Napier Observatory | Change Station
CLOSE
Current Station
Personal Weather Station
Location: Canton, MI
Elevation: 798 ft
Nearby Weather Stations

Elev 798 ft 42.34 °N, 83.55 °W | Updated 7 seconds ago

Overcast
Overcast
31.4 °F
Feels Like 31 °F
N
1.0
Wind Variable Wind from WNW
Gusts 11.0 mph

Today
High -- | Low -- °F
--% Chance of Precip.
Yesterday
High -- | Low -- °F
Precip. -- in
7:39 AM 5:03 PM
Waxing Crescent, 30% visible
Pressure 30.17 in
Visibility 7.0 miles
Clouds Mostly Cloudy 2300 ft
Overcast 3300 ft
Windchill 31 °F
Dew Point 27 °F
Humidity 83%
Rainfall 0.00 in
Snow Depth Not available.
UV 1 out of 12
Pollen .10 out of 12
Air Quality Not available.
Flu Activity Not available.
SPECI KYIP 271548Z 29009KT 7SM BKN023 OVC033 02/M05 A3017 RMK AO2

More Conditions Fewer Conditions

Pressure 30.17 in
Visibility 7.0 miles
Clouds Mostly Cloudy 2300 ft
Overcast 3300 ft
Windchill 31 °F
Dew Point 27 °F
Humidity 83%
Rainfall 0.00 in
Snow Depth Not available.
UV 1 out of 12
Pollen .10 out of 12
Air Quality Not available.
Flu Activity Not available.
SPECI KYIP 271548Z 29009KT 7SM BKN023 OVC033 02/M05 A3017 RMK AO2

More Conditions Fewer Conditions

10-Day Weather Forecast

Almanac

Astronomy

Nov. 27, 2014 Rise Set
Actual Time
Civil Twilight
Nautical Twilight
Astronomical Twilight
Moon
Length of Visible Light
Length of Day
Tomorrow will be .
, % of the Moon is Illuminated

Today's Extremes

State Highs State Lows

Community

WunderPhotos

Upload Photos

1,774,019 photos uploaded!

WunderBlogs® & News

Nearby

Air Quality

  Air Quality AQ Index Pollutant
Not available.

Snow Depth

Station Depth Elevation

Earthquake Activity

City Distance Mag. Time & Date
Minimum magnitude displayed is 2.5.

Coastal Water Temperatures

Place Temperature

Nearby Weather Stations